createdAt,value
2023-01-25T00:00:55.811Z,14.50
2023-01-25T00:01:55.871Z,13.00
2023-01-25T00:02:55.793Z,11.40
2023-01-25T00:03:55.735Z,12.30
2023-01-25T00:04:55.703Z,11.30
2023-01-25T00:05:55.737Z,10.10
2023-01-25T00:06:55.733Z,10.40
2023-01-25T00:07:55.736Z,10.40
2023-01-25T00:08:55.648Z,11.50
2023-01-25T00:09:55.666Z,9.80
2023-01-25T00:10:57.650Z,11.70
2023-01-25T00:11:55.956Z,11.40
2023-01-25T00:12:55.630Z,10.50
2023-01-25T00:13:55.616Z,10.80
2023-01-25T00:14:55.596Z,12.40
2023-01-25T00:15:55.593Z,11.70
2023-01-25T00:16:55.982Z,10.80
2023-01-25T00:17:55.599Z,14.10
2023-01-25T00:18:55.545Z,10.80
2023-01-25T00:19:55.593Z,11.00
2023-01-25T00:20:55.518Z,12.70
2023-01-25T00:21:55.565Z,12.00
2023-01-25T00:22:55.509Z,12.10
2023-01-25T00:23:55.550Z,11.50
2023-01-25T00:24:55.493Z,12.40
2023-01-25T00:25:57.224Z,11.60
2023-01-25T00:26:55.453Z,12.30
2023-01-25T00:27:55.492Z,11.80
2023-01-25T00:28:55.440Z,11.90
2023-01-25T00:29:55.445Z,13.10
2023-01-25T00:30:55.412Z,12.20
2023-01-25T00:31:55.586Z,11.20
2023-01-25T00:32:55.403Z,11.50
2023-01-25T00:33:55.403Z,10.10
2023-01-25T00:34:55.371Z,12.50
2023-01-25T00:35:55.382Z,11.40
2023-01-25T00:36:55.381Z,12.10
2023-01-25T00:37:55.382Z,11.50
2023-01-25T00:38:55.350Z,11.80
2023-01-25T00:39:55.326Z,11.80
2023-01-25T00:40:55.332Z,10.70
2023-01-25T00:41:55.293Z,13.70
2023-01-25T00:42:55.324Z,12.80
2023-01-25T00:43:55.276Z,12.70
2023-01-25T00:44:55.299Z,13.10
2023-01-25T00:45:55.277Z,11.70
2023-01-25T00:46:55.264Z,11.10
2023-01-25T00:47:55.250Z,12.70
2023-01-25T00:48:55.256Z,11.60
2023-01-25T00:49:55.201Z,11.50
2023-01-25T00:50:55.212Z,12.60
2023-01-25T00:51:55.201Z,12.10
2023-01-25T00:52:55.199Z,12.60
2023-01-25T00:53:55.170Z,12.50
2023-01-25T00:54:55.180Z,12.20
2023-01-25T00:55:55.134Z,12.00
2023-01-25T00:56:56.018Z,12.50
2023-01-25T00:57:55.861Z,13.80
2023-01-25T00:58:55.143Z,13.60
2023-01-25T00:59:55.104Z,12.80
2023-01-25T01:00:55.124Z,12.20
2023-01-25T01:01:55.077Z,13.00
2023-01-25T01:02:55.086Z,11.90
2023-01-25T01:03:55.058Z,12.00
2023-01-25T01:04:55.092Z,15.80
2023-01-25T01:05:55.029Z,12.40
2023-01-25T01:06:55.133Z,14.50
2023-01-25T01:07:55.008Z,12.60
2023-01-25T01:08:55.076Z,12.90
2023-01-25T01:09:54.986Z,12.70
2023-01-25T01:10:55.007Z,14.20
2023-01-25T01:11:54.958Z,16.60
2023-01-25T01:12:54.984Z,15.60
2023-01-25T01:13:54.968Z,14.20
2023-01-25T01:14:54.968Z,14.00
2023-01-25T01:15:54.919Z,13.20
2023-01-25T01:16:57.088Z,14.40
2023-01-25T01:17:54.903Z,13.70
2023-01-25T01:18:55.652Z,15.10
2023-01-25T01:19:54.889Z,16.50
2023-01-25T01:20:54.885Z,15.30
2023-01-25T01:21:54.852Z,14.30
2023-01-25T01:22:54.876Z,15.00
2023-01-25T01:23:54.901Z,14.10
2023-01-25T01:24:54.852Z,14.90
2023-01-25T01:25:54.815Z,15.40
2023-01-25T01:26:54.837Z,14.50
2023-01-25T01:27:54.796Z,14.30
2023-01-25T01:28:54.811Z,15.10
2023-01-25T01:29:54.777Z,14.20
2023-01-25T01:30:54.798Z,14.40
2023-01-25T01:31:54.769Z,14.30
2023-01-25T01:32:54.884Z,16.00
2023-01-25T01:33:54.736Z,16.50
2023-01-25T01:34:54.745Z,15.90
2023-01-25T01:35:54.718Z,15.10
2023-01-25T01:36:54.729Z,15.70
2023-01-25T01:37:54.681Z,14.80
2023-01-25T01:38:55.588Z,15.20
2023-01-25T01:39:54.995Z,15.40
2023-01-25T01:40:54.681Z,14.40
2023-01-25T01:41:54.635Z,15.00
2023-01-25T01:42:54.651Z,14.50
2023-01-25T01:43:54.636Z,16.10
2023-01-25T01:44:54.692Z,14.10
2023-01-25T01:45:54.640Z,13.60
2023-01-25T01:46:54.783Z,15.20
2023-01-25T01:47:54.562Z,14.00
2023-01-25T01:48:54.592Z,14.80
2023-01-25T01:49:54.560Z,14.50
2023-01-25T01:50:54.564Z,16.20
2023-01-25T01:51:54.532Z,14.50
2023-01-25T01:52:54.532Z,15.80
2023-01-25T01:53:54.506Z,15.20
2023-01-25T01:54:54.531Z,13.40
2023-01-25T01:55:54.480Z,13.60
2023-01-25T01:57:03.795Z,14.10
2023-01-25T01:57:54.460Z,15.00
2023-01-25T01:58:54.502Z,13.80
2023-01-25T01:59:54.560Z,16.90
2023-01-25T02:00:54.495Z,13.50
2023-01-25T02:01:54.472Z,14.10
2023-01-25T02:02:54.493Z,16.80
2023-01-25T02:03:54.388Z,15.80
2023-01-25T02:04:54.766Z,16.00
2023-01-25T02:05:54.416Z,16.20
2023-01-25T02:06:54.403Z,16.10
2023-01-25T02:07:54.372Z,16.80
2023-01-25T02:08:54.404Z,15.00
2023-01-25T02:09:54.337Z,16.50
2023-01-25T02:10:54.347Z,15.30
2023-01-25T02:11:54.510Z,15.80
2023-01-25T02:12:54.338Z,14.80
2023-01-25T02:13:54.336Z,16.00
2023-01-25T02:14:54.303Z,14.40
2023-01-25T02:15:54.343Z,15.40
2023-01-25T02:16:54.303Z,14.90
2023-01-25T02:17:54.346Z,15.60
2023-01-25T02:18:54.254Z,14.70
2023-01-25T02:19:54.441Z,14.70
2023-01-25T02:20:54.238Z,15.10
2023-01-25T02:21:54.261Z,13.70
2023-01-25T02:22:54.253Z,14.90
2023-01-25T02:23:54.236Z,13.70
2023-01-25T02:24:54.192Z,13.90
2023-01-25T02:25:54.165Z,14.80
2023-01-25T02:26:54.245Z,14.30
2023-01-25T02:27:54.134Z,12.90
2023-01-25T02:28:54.202Z,15.00
2023-01-25T02:29:54.131Z,14.60
2023-01-25T02:30:54.203Z,16.00
2023-01-25T02:31:54.202Z,16.80
2023-01-25T02:32:54.097Z,14.10
2023-01-25T02:33:54.207Z,14.90
2023-01-25T02:34:54.083Z,16.70
2023-01-25T02:35:54.042Z,15.20
2023-01-25T02:36:54.066Z,16.00
2023-01-25T02:37:54.029Z,16.00
2023-01-25T02:38:54.078Z,15.40
2023-01-25T02:39:54.034Z,16.80
2023-01-25T02:40:54.781Z,15.00
2023-01-25T02:41:53.996Z,15.60
2023-01-25T02:42:54.005Z,16.00
2023-01-25T02:43:54.038Z,17.00
2023-01-25T02:44:53.966Z,13.90
2023-01-25T02:45:54.038Z,11.80
2023-01-25T02:46:53.947Z,11.80
2023-01-25T02:47:53.905Z,11.20
2023-01-25T02:48:53.972Z,9.80
2023-01-25T02:49:53.910Z,8.50
2023-01-25T02:50:53.961Z,10.10
2023-01-25T02:51:53.873Z,9.20
2023-01-25T02:52:53.888Z,10.30
2023-01-25T02:53:53.850Z,11.00
2023-01-25T02:54:53.923Z,9.50
2023-01-25T02:55:53.823Z,13.40
2023-01-25T02:56:53.874Z,11.20
2023-01-25T02:57:53.810Z,11.90
2023-01-25T02:58:53.850Z,11.20
2023-01-25T02:59:53.795Z,10.10
2023-01-25T03:00:54.356Z,9.30
2023-01-25T03:01:54.355Z,11.70
2023-01-25T03:02:53.857Z,11.20
2023-01-25T03:03:53.760Z,11.10
2023-01-25T03:04:53.761Z,10.00
2023-01-25T03:05:53.743Z,9.50
2023-01-25T03:06:53.795Z,10.10
2023-01-25T03:07:53.694Z,8.20
2023-01-25T03:08:53.720Z,9.10
2023-01-25T03:09:53.685Z,9.60
2023-01-25T03:10:53.706Z,9.40
2023-01-25T03:11:53.685Z,9.90
2023-01-25T03:12:53.662Z,9.00
2023-01-25T03:13:53.667Z,9.80
2023-01-25T03:14:53.679Z,10.20
2023-01-25T03:15:53.661Z,10.50
2023-01-25T03:16:53.650Z,9.20
2023-01-25T03:17:53.582Z,9.50
2023-01-25T03:18:53.646Z,9.60
2023-01-25T03:19:53.595Z,10.50
2023-01-25T03:20:53.637Z,8.00
2023-01-25T03:21:53.926Z,8.50
2023-01-25T03:22:53.571Z,9.20
2023-01-25T03:23:53.523Z,10.00
2023-01-25T03:24:53.614Z,9.00
2023-01-25T03:25:53.547Z,10.00
2023-01-25T03:26:53.524Z,10.30
2023-01-25T03:27:53.495Z,11.10
2023-01-25T03:28:53.496Z,9.90
2023-01-25T03:29:53.465Z,10.60
2023-01-25T03:30:53.482Z,9.10
2023-01-25T03:31:53.548Z,8.90
2023-01-25T03:32:53.439Z,9.10
2023-01-25T03:33:53.434Z,9.40
2023-01-25T03:34:53.551Z,8.80
2023-01-25T03:35:53.468Z,9.60
2023-01-25T03:36:53.472Z,9.60
2023-01-25T03:37:53.383Z,8.70
2023-01-25T03:38:53.487Z,9.20
2023-01-25T03:39:53.342Z,9.50
2023-01-25T03:40:53.391Z,10.80
2023-01-25T03:41:54.210Z,9.90
2023-01-25T03:42:53.400Z,9.90
2023-01-25T03:43:53.340Z,10.20
2023-01-25T03:44:53.352Z,11.10
2023-01-25T03:45:53.445Z,11.70
2023-01-25T03:46:53.357Z,8.30
2023-01-25T03:47:53.327Z,9.20
2023-01-25T03:48:53.298Z,9.80
2023-01-25T03:49:53.246Z,10.00
2023-01-25T03:50:53.360Z,10.00
2023-01-25T03:51:53.257Z,9.90
2023-01-25T03:52:53.231Z,11.20
2023-01-25T03:53:53.197Z,10.90
2023-01-25T03:54:53.282Z,11.60
2023-01-25T03:55:53.183Z,12.00
2023-01-25T03:56:53.213Z,12.40
2023-01-25T03:57:53.186Z,10.60
2023-01-25T03:58:53.167Z,10.60
2023-01-25T03:59:53.186Z,11.10
2023-01-25T04:00:53.244Z,10.90
2023-01-25T04:01:53.466Z,9.40
2023-01-25T04:02:53.379Z,8.60
2023-01-25T04:03:53.087Z,9.10
2023-01-25T04:04:53.095Z,10.20
2023-01-25T04:05:53.109Z,9.40
2023-01-25T04:06:53.106Z,10.80
2023-01-25T04:07:53.054Z,9.40
2023-01-25T04:08:53.056Z,10.90
2023-01-25T04:09:53.031Z,10.90
2023-01-25T04:10:53.037Z,10.60
2023-01-25T04:11:53.044Z,8.80
2023-01-25T04:12:53.035Z,9.90
2023-01-25T04:13:52.990Z,10.00
2023-01-25T04:14:52.993Z,10.20
2023-01-25T04:15:53.160Z,10.40
2023-01-25T04:16:53.011Z,11.50
2023-01-25T04:17:53.069Z,9.70
2023-01-25T04:18:52.959Z,11.40
2023-01-25T04:19:53.016Z,10.20
2023-01-25T04:20:52.925Z,13.30
2023-01-25T04:21:52.915Z,11.50
2023-01-25T04:22:53.845Z,9.40
2023-01-25T04:23:52.974Z,9.10
2023-01-25T04:24:55.167Z,7.80
2023-01-25T04:25:52.868Z,6.90
2023-01-25T04:26:52.855Z,7.90
2023-01-25T04:27:52.827Z,9.20
2023-01-25T04:28:52.842Z,9.50
2023-01-25T04:29:52.935Z,9.90
2023-01-25T04:30:52.824Z,9.70
2023-01-25T04:31:52.920Z,9.60
2023-01-25T04:32:52.855Z,10.20
2023-01-25T04:33:52.765Z,9.50
2023-01-25T04:34:52.771Z,9.40
2023-01-25T04:35:52.754Z,11.10
2023-01-25T04:36:52.758Z,10.30
2023-01-25T04:37:52.785Z,10.10
2023-01-25T04:38:52.740Z,10.10
2023-01-25T04:39:52.811Z,10.50
2023-01-25T04:40:52.713Z,8.90
2023-01-25T04:41:52.702Z,10.30
2023-01-25T04:42:53.580Z,9.80
2023-01-25T04:43:52.704Z,11.10
2023-01-25T04:44:52.794Z,10.00
2023-01-25T04:45:52.710Z,8.50
2023-01-25T04:46:52.648Z,9.80
2023-01-25T04:47:52.611Z,9.60
2023-01-25T04:48:52.631Z,10.80
2023-01-25T04:49:52.959Z,10.50
2023-01-25T04:50:52.607Z,9.70
2023-01-25T04:51:52.629Z,9.40
2023-01-25T04:52:52.560Z,10.80
2023-01-25T04:53:52.558Z,9.40
2023-01-25T04:54:52.555Z,10.00
2023-01-25T04:55:52.553Z,11.90
2023-01-25T04:56:52.513Z,12.20
2023-01-25T04:57:52.580Z,10.80
2023-01-25T04:58:52.499Z,11.90
2023-01-25T04:59:52.502Z,10.90
2023-01-25T05:00:52.530Z,12.00
2023-01-25T05:01:52.530Z,10.30
2023-01-25T05:02:52.445Z,9.90
2023-01-25T05:03:52.554Z,10.10
2023-01-25T05:04:52.424Z,10.20
2023-01-25T05:05:52.440Z,11.30
2023-01-25T05:06:52.412Z,12.40
2023-01-25T05:07:52.483Z,10.30
2023-01-25T05:08:52.456Z,10.10
2023-01-25T05:09:52.397Z,10.20
2023-01-25T05:10:52.369Z,11.80
2023-01-25T05:11:52.362Z,10.30
2023-01-25T05:12:52.324Z,12.70
2023-01-25T05:13:52.345Z,10.80
2023-01-25T05:14:52.297Z,9.90
2023-01-25T05:15:52.396Z,9.80
2023-01-25T05:16:52.391Z,9.30
2023-01-25T05:17:52.320Z,9.50
2023-01-25T05:18:52.269Z,9.00
2023-01-25T05:19:52.277Z,9.70
2023-01-25T05:20:52.322Z,8.90
2023-01-25T05:21:52.321Z,9.60
2023-01-25T05:22:52.271Z,9.90
2023-01-25T05:23:52.257Z,9.70
2023-01-25T05:24:52.273Z,11.10
2023-01-25T05:25:52.225Z,9.80
2023-01-25T05:26:52.240Z,9.80
2023-01-25T05:27:52.260Z,9.50
2023-01-25T05:28:52.156Z,9.30
2023-01-25T05:29:52.179Z,9.00
2023-01-25T05:30:52.157Z,8.90
2023-01-25T05:31:52.276Z,10.60
2023-01-25T05:32:52.135Z,9.50
2023-01-25T05:33:52.118Z,12.60
2023-01-25T05:34:52.121Z,9.70
2023-01-25T05:35:52.105Z,12.10
2023-01-25T05:36:52.116Z,9.70
2023-01-25T05:37:52.088Z,11.50
2023-01-25T05:38:52.074Z,14.60
2023-01-25T05:39:52.071Z,9.40
2023-01-25T05:40:52.051Z,10.60
2023-01-25T05:41:52.081Z,9.60
2023-01-25T05:42:52.030Z,9.70
2023-01-25T05:43:52.733Z,12.70
2023-01-25T05:44:52.629Z,9.70
2023-01-25T05:45:52.075Z,12.80
2023-01-25T05:46:52.005Z,11.30
2023-01-25T05:47:51.985Z,9.30
2023-01-25T05:48:52.581Z,9.90
2023-01-25T05:49:51.968Z,10.70
2023-01-25T05:50:51.927Z,10.40
2023-01-25T05:51:51.926Z,11.20
2023-01-25T05:52:51.988Z,12.30
2023-01-25T05:53:51.943Z,11.00
2023-01-25T05:54:51.983Z,12.50
2023-01-25T05:55:51.898Z,13.80
2023-01-25T05:56:51.857Z,12.20
2023-01-25T05:57:51.852Z,12.80
2023-01-25T05:58:51.850Z,14.50
2023-01-25T05:59:51.896Z,11.80
2023-01-25T06:00:51.802Z,11.80
2023-01-25T06:01:51.847Z,13.80
2023-01-25T06:02:51.860Z,11.60
2023-01-25T06:03:51.877Z,13.70
2023-01-25T06:04:52.250Z,11.60
2023-01-25T06:05:51.876Z,12.30
2023-01-25T06:06:51.743Z,12.70
2023-01-25T06:07:51.780Z,12.50
2023-01-25T06:08:51.748Z,12.80
2023-01-25T06:09:51.813Z,11.70
2023-01-25T06:10:51.732Z,10.30
2023-01-25T06:11:51.752Z,12.60
2023-01-25T06:12:51.678Z,10.60
2023-01-25T06:13:51.709Z,11.00
2023-01-25T06:14:51.689Z,9.20
2023-01-25T06:15:51.735Z,10.00
2023-01-25T06:16:52.487Z,9.80
2023-01-25T06:17:51.654Z,9.30
2023-01-25T06:18:51.615Z,9.40
2023-01-25T06:19:51.641Z,9.10
2023-01-25T06:20:51.947Z,9.40
2023-01-25T06:21:52.510Z,9.20
2023-01-25T06:22:51.617Z,9.70
2023-01-25T06:23:52.315Z,9.30
2023-01-25T06:24:52.384Z,8.60
2023-01-25T06:25:51.914Z,10.50
2023-01-25T06:26:51.560Z,8.80
2023-01-25T06:27:51.587Z,9.40
2023-01-25T06:28:52.703Z,8.90
2023-01-25T06:29:51.551Z,8.10
2023-01-25T06:30:51.545Z,10.10
2023-01-25T06:31:51.576Z,9.60
2023-01-25T06:32:51.551Z,10.60
2023-01-25T06:33:51.479Z,11.80
2023-01-25T06:34:51.449Z,10.60
2023-01-25T06:35:51.529Z,12.00
2023-01-25T06:36:51.453Z,10.90
2023-01-25T06:37:51.442Z,10.00
2023-01-25T06:38:51.394Z,11.60
2023-01-25T06:39:51.404Z,9.50
2023-01-25T06:40:51.480Z,10.40
2023-01-25T06:41:51.399Z,9.80
2023-01-25T06:42:51.461Z,11.70
2023-01-25T06:43:51.382Z,9.70
2023-01-25T06:44:51.341Z,10.50
2023-01-25T06:45:51.366Z,9.90
2023-01-25T06:46:51.453Z,11.10
2023-01-25T06:47:51.324Z,9.20
2023-01-25T06:48:51.403Z,11.70
2023-01-25T06:49:51.293Z,12.90
2023-01-25T06:50:51.270Z,10.60
2023-01-25T06:51:51.304Z,10.60
2023-01-25T06:52:51.239Z,10.60
2023-01-25T06:53:51.290Z,11.90
2023-01-25T06:54:51.365Z,10.70
2023-01-25T06:55:51.233Z,11.40
2023-01-25T06:56:51.245Z,9.70
2023-01-25T06:57:51.214Z,13.10
2023-01-25T06:58:51.317Z,12.00
2023-01-25T06:59:51.205Z,11.90
2023-01-25T07:00:51.167Z,10.70
2023-01-25T07:01:51.372Z,12.20
2023-01-25T07:02:51.293Z,12.10
2023-01-25T07:03:51.900Z,14.00
2023-01-25T07:04:51.123Z,12.80
2023-01-25T07:05:51.250Z,11.90
2023-01-25T07:06:51.959Z,11.40
2023-01-25T07:07:51.112Z,12.70
2023-01-25T07:08:51.125Z,11.40
2023-01-25T07:09:51.112Z,12.40
2023-01-25T07:10:51.143Z,13.70
2023-01-25T07:11:51.083Z,10.40
2023-01-25T07:12:51.026Z,9.90
2023-01-25T07:13:51.055Z,8.90
2023-01-25T07:14:51.000Z,10.80
2023-01-25T07:15:51.011Z,10.70
2023-01-25T07:16:51.023Z,12.20
2023-01-25T07:17:51.064Z,12.20
2023-01-25T07:18:50.965Z,11.90
2023-01-25T07:19:50.982Z,11.70
2023-01-25T07:20:50.997Z,12.10
2023-01-25T07:21:50.975Z,12.50
2023-01-25T07:22:50.927Z,9.60
2023-01-25T07:23:51.035Z,8.60
2023-01-25T07:24:50.880Z,12.70
2023-01-25T07:25:51.637Z,10.00
2023-01-25T07:26:51.626Z,10.50
2023-01-25T07:27:50.898Z,10.90
2023-01-25T07:28:50.849Z,11.30
2023-01-25T07:29:50.884Z,11.10
2023-01-25T07:30:50.836Z,10.20
2023-01-25T07:31:50.914Z,11.00
2023-01-25T07:32:50.818Z,12.30
2023-01-25T07:33:50.839Z,9.90
2023-01-25T07:34:50.780Z,9.10
2023-01-25T07:35:50.871Z,7.60
2023-01-25T07:36:50.803Z,8.70
2023-01-25T07:37:50.868Z,8.30
2023-01-25T07:38:51.010Z,8.30
2023-01-25T07:39:50.950Z,10.90
2023-01-25T07:40:50.789Z,9.30
2023-01-25T07:41:50.790Z,9.50
2023-01-25T07:42:50.806Z,11.30
2023-01-25T07:43:50.815Z,8.50
2023-01-25T07:44:50.701Z,9.50
2023-01-25T07:45:50.736Z,9.80
2023-01-25T07:46:50.761Z,10.90
2023-01-25T07:47:50.740Z,10.30
2023-01-25T07:48:50.712Z,11.30
2023-01-25T07:49:50.661Z,11.50
2023-01-25T07:50:50.768Z,9.70
2023-01-25T07:51:51.562Z,8.20
2023-01-25T07:52:50.895Z,10.30
2023-01-25T07:53:50.655Z,10.10
2023-01-25T07:54:50.784Z,9.10
2023-01-25T07:55:50.592Z,10.30
2023-01-25T07:56:50.545Z,9.20
2023-01-25T07:57:50.555Z,8.20
2023-01-25T07:58:50.587Z,6.70
2023-01-25T07:59:50.555Z,8.00
2023-01-25T08:00:50.539Z,9.10
2023-01-25T08:01:50.537Z,10.30
2023-01-25T08:02:50.488Z,10.10
2023-01-25T08:03:50.627Z,8.30
2023-01-25T08:04:50.472Z,9.60
2023-01-25T08:05:50.537Z,7.80
2023-01-25T08:06:50.477Z,8.70
2023-01-25T08:07:50.563Z,7.60
2023-01-25T08:08:50.773Z,8.00
2023-01-25T08:09:50.426Z,9.70
2023-01-25T08:10:50.395Z,6.80
2023-01-25T08:11:50.434Z,7.50
2023-01-25T08:12:50.381Z,10.10
2023-01-25T08:13:50.462Z,11.70
2023-01-25T08:14:50.366Z,10.80
2023-01-25T08:15:50.382Z,13.40
2023-01-25T08:16:50.416Z,9.80
2023-01-25T08:17:50.357Z,10.00
2023-01-25T08:18:50.323Z,9.30
2023-01-25T08:19:50.342Z,12.70
2023-01-25T08:20:50.291Z,12.60
2023-01-25T08:21:50.314Z,12.90
2023-01-25T08:22:50.263Z,13.20
2023-01-25T08:23:50.292Z,12.50
2023-01-25T08:24:50.263Z,12.10
2023-01-25T08:25:50.259Z,11.10
2023-01-25T08:26:50.441Z,11.70
2023-01-25T08:27:50.250Z,10.10
2023-01-25T08:28:50.790Z,15.10
2023-01-25T08:29:50.201Z,11.50
2023-01-25T08:30:57.301Z,11.30
2023-01-25T08:31:51.233Z,9.90
2023-01-25T08:32:50.166Z,11.30
2023-01-25T08:33:50.169Z,12.20
2023-01-25T08:34:50.143Z,9.60
2023-01-25T08:35:50.129Z,10.00
2023-01-25T08:37:50.273Z,10.70
2023-01-25T08:38:50.118Z,10.50
2023-01-25T08:39:50.129Z,10.80
2023-01-25T08:40:50.148Z,9.70
2023-01-25T08:41:50.090Z,9.40
2023-01-25T08:42:50.046Z,10.80
2023-01-25T08:43:50.063Z,11.20
2023-01-25T08:44:50.022Z,12.20
2023-01-25T08:45:50.056Z,11.40
2023-01-25T08:46:50.072Z,10.20
2023-01-25T08:47:51.043Z,10.20
2023-01-25T08:48:50.052Z,10.80
2023-01-25T08:49:50.019Z,9.70
2023-01-25T08:50:50.111Z,9.70
2023-01-25T08:51:49.976Z,8.40
2023-01-25T08:52:49.949Z,10.20
2023-01-25T08:53:50.053Z,8.40
2023-01-25T08:54:49.928Z,10.00
2023-01-25T08:55:49.941Z,10.10
2023-01-25T08:56:49.896Z,10.90
2023-01-25T08:57:49.930Z,10.80
2023-01-25T08:58:49.875Z,10.70
2023-01-25T08:59:49.889Z,12.20
2023-01-25T09:00:49.934Z,11.70
2023-01-25T09:01:49.861Z,12.10
2023-01-25T09:02:49.817Z,9.10
2023-01-25T09:03:49.966Z,10.40
2023-01-25T09:04:49.805Z,10.10
2023-01-25T09:05:49.886Z,10.20
2023-01-25T09:06:49.786Z,8.60
2023-01-25T09:07:49.762Z,10.20
2023-01-25T09:08:49.779Z,9.80
2023-01-25T09:09:49.761Z,10.00
2023-01-25T09:10:49.845Z,9.50
2023-01-25T09:11:49.755Z,10.10
2023-01-25T09:12:49.739Z,11.00
2023-01-25T09:13:49.707Z,9.60
2023-01-25T09:14:49.710Z,8.60
2023-01-25T09:15:49.681Z,9.20
2023-01-25T09:16:49.748Z,9.50
2023-01-25T09:17:49.665Z,18.10
2023-01-25T09:18:50.871Z,9.50
2023-01-25T09:20:49.656Z,9.00
2023-01-25T09:21:49.693Z,11.40
2023-01-25T09:22:49.632Z,10.30
2023-01-25T09:24:04.467Z,10.50
2023-01-25T09:24:50.670Z,9.90
2023-01-25T09:25:49.578Z,8.70
2023-01-25T09:26:58.965Z,8.90
2023-01-25T09:27:50.583Z,12.20
2023-01-25T09:28:50.351Z,12.90
2023-01-25T09:30:01.490Z,11.20
2023-01-25T09:31:06.100Z,9.10
2023-01-25T09:31:50.586Z,14.40
2023-01-25T09:33:42.394Z,10.50
2023-01-25T09:34:42.371Z,10.00
2023-01-25T09:35:42.370Z,10.20
2023-01-25T09:36:42.353Z,13.50
2023-01-25T09:37:42.344Z,9.30
2023-01-25T09:38:42.329Z,10.00
2023-01-25T09:39:42.356Z,9.90
2023-01-25T09:40:42.299Z,10.80
2023-01-25T09:41:42.341Z,10.50
2023-01-25T09:42:42.276Z,10.90
2023-01-25T09:43:42.301Z,12.20
2023-01-25T09:44:42.293Z,14.10
2023-01-25T09:45:42.270Z,13.50
2023-01-25T09:46:43.050Z,10.70
2023-01-25T09:47:43.182Z,14.30
2023-01-25T09:48:42.233Z,15.70
2023-01-25T09:49:42.209Z,14.60
2023-01-25T09:50:42.178Z,14.80
2023-01-25T09:51:42.193Z,11.00
2023-01-25T09:52:42.158Z,10.40
2023-01-25T09:53:42.179Z,11.00
2023-01-25T09:54:47.123Z,9.00
2023-01-25T09:55:43.189Z,10.10
2023-01-25T09:56:42.150Z,8.60
2023-01-25T09:57:42.134Z,8.70
2023-01-25T09:58:42.099Z,8.30
2023-01-25T09:59:42.127Z,8.00
2023-01-25T10:00:42.086Z,7.80
2023-01-25T10:01:42.107Z,10.90
2023-01-25T10:02:42.323Z,8.90
2023-01-25T10:03:42.109Z,9.90
2023-01-25T10:04:42.070Z,8.00
2023-01-25T10:05:42.045Z,8.40
2023-01-25T10:06:46.085Z,6.70
2023-01-25T10:07:43.768Z,8.50
2023-01-25T10:08:41.996Z,7.30
2023-01-25T10:09:42.007Z,8.30
2023-01-25T10:10:41.977Z,7.50
2023-01-25T10:11:43.093Z,7.30
2023-01-25T10:12:41.948Z,7.70
2023-01-25T10:13:41.956Z,8.10
2023-01-25T10:14:41.922Z,7.70
2023-01-25T10:15:41.951Z,7.40
2023-01-25T10:16:42.898Z,8.00
2023-01-25T10:17:41.914Z,7.10
2023-01-25T10:18:41.875Z,7.10
2023-01-25T10:19:41.889Z,6.60
2023-01-25T10:20:41.839Z,6.80
2023-01-25T10:21:41.877Z,6.90
2023-01-25T10:22:41.844Z,5.90
2023-01-25T10:23:41.837Z,8.30
2023-01-25T10:24:41.805Z,19.00
2023-01-25T10:25:41.826Z,6.80
2023-01-25T10:26:41.816Z,7.40
2023-01-25T10:27:42.455Z,7.80
2023-01-25T10:28:42.597Z,7.20
2023-01-25T10:29:41.806Z,6.50
2023-01-25T10:30:41.785Z,6.80
2023-01-25T10:31:41.826Z,6.60
2023-01-25T10:32:51.080Z,6.80
2023-01-25T10:33:42.744Z,6.30
2023-01-25T10:34:55.319Z,5.30
2023-01-25T10:35:45.744Z,7.10
2023-01-25T10:36:41.703Z,6.30
2023-01-25T10:37:41.708Z,8.00
2023-01-25T10:38:41.699Z,6.60
2023-01-25T10:39:41.655Z,7.60
2023-01-25T10:40:41.644Z,7.70
2023-01-25T10:41:41.623Z,7.60
2023-01-25T10:42:41.630Z,7.40
2023-01-25T10:43:41.655Z,8.40
2023-01-25T10:44:41.594Z,8.60
2023-01-25T10:45:41.581Z,7.30
2023-01-25T10:46:41.624Z,7.30
2023-01-25T10:47:41.547Z,6.90
2023-01-25T10:48:42.389Z,7.40
2023-01-25T10:49:41.672Z,7.00
2023-01-25T10:50:41.547Z,7.50
2023-01-25T10:51:41.516Z,8.00
2023-01-25T10:52:41.520Z,7.50
2023-01-25T10:53:41.495Z,6.90
2023-01-25T10:54:41.507Z,7.80
2023-01-25T10:55:41.450Z,8.80
2023-01-25T10:56:41.486Z,8.60
2023-01-25T10:57:41.437Z,8.80
2023-01-25T10:58:41.468Z,9.30
2023-01-25T10:59:41.420Z,8.40
2023-01-25T11:00:41.443Z,8.90
2023-01-25T11:01:41.496Z,10.30
2023-01-25T11:02:41.435Z,7.80
2023-01-25T11:03:41.373Z,9.40
2023-01-25T11:04:42.511Z,9.10
2023-01-25T11:05:41.356Z,8.90
2023-01-25T11:06:41.358Z,7.60
2023-01-25T11:07:41.318Z,9.20
2023-01-25T11:08:41.358Z,8.70
2023-01-25T11:09:42.179Z,9.40
2023-01-25T11:10:41.327Z,7.70
2023-01-25T11:11:41.650Z,9.00
2023-01-25T11:12:41.298Z,8.90
2023-01-25T11:13:41.257Z,10.30
2023-01-25T11:14:41.288Z,9.70
2023-01-25T11:15:41.269Z,8.20
2023-01-25T11:16:41.252Z,8.20
2023-01-25T11:17:41.209Z,7.70
2023-01-25T11:18:41.221Z,8.30
2023-01-25T11:19:41.180Z,8.40
2023-01-25T11:20:41.197Z,9.40
2023-01-25T11:21:41.207Z,9.40
2023-01-25T11:22:41.247Z,10.10
2023-01-25T11:23:41.177Z,9.30
2023-01-25T11:24:41.186Z,9.00
2023-01-25T11:25:41.190Z,8.70
2023-01-25T11:26:41.200Z,7.10
2023-01-25T11:27:41.120Z,9.80
2023-01-25T11:28:41.947Z,8.70
2023-01-25T11:29:41.848Z,8.30
2023-01-25T11:30:41.177Z,7.50
2023-01-25T11:31:41.506Z,7.40
2023-01-25T11:32:41.131Z,7.70
2023-01-25T11:33:41.037Z,15.30
2023-01-25T11:34:41.046Z,32.40
2023-01-25T11:35:41.011Z,13.20
2023-01-25T11:36:41.179Z,8.30
2023-01-25T11:37:41.029Z,8.00
2023-01-25T11:38:41.122Z,9.20
2023-01-25T11:39:40.984Z,7.80
2023-01-25T11:40:40.983Z,9.80
2023-01-25T11:41:40.943Z,11.60
2023-01-25T11:42:40.956Z,8.00
2023-01-25T11:43:40.980Z,8.00
2023-01-25T11:44:40.933Z,8.10
2023-01-25T11:45:40.900Z,7.80
2023-01-25T11:46:40.951Z,6.70
2023-01-25T11:47:40.911Z,8.70
2023-01-25T11:48:40.939Z,8.50
2023-01-25T11:49:40.863Z,10.10
2023-01-25T11:50:40.946Z,7.40
2023-01-25T11:51:40.845Z,13.80
2023-01-25T11:52:40.840Z,14.40
2023-01-25T11:53:40.834Z,10.80
2023-01-25T11:54:40.832Z,17.20
2023-01-25T11:55:40.807Z,12.90
2023-01-25T11:56:40.860Z,9.10
2023-01-25T11:57:40.790Z,9.00
2023-01-25T11:58:40.792Z,8.30
2023-01-25T11:59:40.746Z,8.20
2023-01-25T12:00:40.776Z,10.40
2023-01-25T12:01:40.782Z,8.00
2023-01-25T12:02:40.750Z,8.90
2023-01-25T12:03:40.740Z,7.70
2023-01-25T12:04:40.742Z,13.00
2023-01-25T12:05:40.700Z,12.20
2023-01-25T12:06:40.673Z,11.70
2023-01-25T12:07:40.660Z,13.80
2023-01-25T12:08:40.688Z,12.40
2023-01-25T12:09:40.649Z,13.00
2023-01-25T12:10:40.914Z,7.90
2023-01-25T12:11:40.611Z,9.40
2023-01-25T12:12:40.632Z,8.70
2023-01-25T12:13:40.602Z,12.80
2023-01-25T12:14:40.634Z,15.00
2023-01-25T12:15:40.560Z,13.80
2023-01-25T12:16:40.601Z,8.80
2023-01-25T12:17:40.556Z,14.90
2023-01-25T12:18:40.550Z,13.00
2023-01-25T12:19:40.534Z,10.20
2023-01-25T12:20:40.614Z,10.30
2023-01-25T12:21:40.750Z,10.10
2023-01-25T12:22:40.566Z,9.60
2023-01-25T12:23:40.527Z,12.50
2023-01-25T12:24:40.537Z,7.60
2023-01-25T12:25:40.529Z,10.10
2023-01-25T12:26:40.480Z,7.80
2023-01-25T12:27:40.461Z,7.90
2023-01-25T12:28:40.478Z,8.20
2023-01-25T12:29:40.440Z,8.90
2023-01-25T12:30:40.504Z,8.60
2023-01-25T12:31:40.874Z,9.60
2023-01-25T12:32:40.397Z,8.60
2023-01-25T12:33:40.373Z,8.30
2023-01-25T12:34:40.377Z,10.50
2023-01-25T12:35:40.347Z,8.20
2023-01-25T12:36:40.393Z,9.30
2023-01-25T12:37:40.330Z,8.10
2023-01-25T12:38:40.402Z,8.20
2023-01-25T12:39:40.395Z,10.90
2023-01-25T12:40:40.315Z,8.70
2023-01-25T12:41:40.280Z,9.00
2023-01-25T12:42:40.327Z,9.10
2023-01-25T12:43:40.249Z,8.60
2023-01-25T12:44:40.278Z,10.00
2023-01-25T12:45:40.227Z,9.10
2023-01-25T12:46:40.435Z,7.90
2023-01-25T12:47:40.234Z,9.70
2023-01-25T12:48:40.231Z,9.90
2023-01-25T12:49:40.181Z,9.60
2023-01-25T12:50:40.994Z,10.10
2023-01-25T12:51:40.184Z,8.80
2023-01-25T12:52:40.221Z,9.30
2023-01-25T12:53:40.153Z,9.20
2023-01-25T12:54:40.173Z,9.70
2023-01-25T12:55:40.131Z,9.30
2023-01-25T12:56:40.126Z,8.20
2023-01-25T12:57:40.108Z,11.40
2023-01-25T12:58:40.128Z,9.00
2023-01-25T12:59:40.090Z,9.00
2023-01-25T13:00:40.205Z,10.40
2023-01-25T13:01:40.093Z,8.20
2023-01-25T13:02:40.074Z,7.90
2023-01-25T13:03:40.049Z,9.30
2023-01-25T13:04:40.046Z,10.00
2023-01-25T13:05:40.070Z,9.80
2023-01-25T13:06:40.025Z,10.80